createdAt,value
2019-05-05T08:32:04.440Z,99.70
2019-05-05T08:34:34.030Z,99.80
2019-05-05T08:37:04.330Z,99.40
2019-05-05T08:39:34.551Z,99.70
2019-05-05T08:42:04.444Z,99.40
2019-05-05T08:44:34.439Z,99.40
2019-05-05T08:47:04.579Z,99.60
2019-05-05T08:49:34.763Z,99.80
2019-05-05T08:52:04.370Z,99.00
2019-05-05T08:54:34.344Z,99.00
2019-05-05T08:57:04.335Z,99.30
2019-05-05T08:59:34.354Z,99.50
2019-05-05T09:02:04.549Z,99.30
2019-05-05T09:04:34.143Z,99.30
2019-05-05T09:07:06.602Z,99.30
2019-05-05T09:09:36.059Z,98.70
2019-05-05T09:12:05.976Z,99.40
2019-05-05T09:14:35.846Z,99.20
2019-05-05T09:17:05.323Z,98.80
2019-05-05T09:19:34.778Z,98.30
2019-05-05T09:22:06.781Z,98.00
2019-05-05T09:24:54.111Z,98.50
2019-05-05T09:27:34.452Z,97.70
2019-05-05T09:30:04.248Z,98.00
2019-05-05T09:32:34.452Z,97.20
2019-05-05T09:35:04.864Z,97.60
2019-05-05T09:37:34.261Z,97.50
2019-05-05T09:40:05.067Z,97.70
2019-05-05T09:42:34.323Z,98.10
2019-05-05T09:45:04.824Z,97.50
2019-05-05T09:47:34.510Z,98.80
2019-05-05T09:50:14.336Z,97.50
2019-05-05T09:52:46.308Z,97.40
2019-05-05T09:55:18.029Z,97.00
2019-05-05T09:57:47.407Z,97.80
2019-05-05T10:00:17.809Z,97.40
2019-05-05T10:02:49.970Z,97.50
2019-05-05T10:05:20.678Z,98.00
2019-05-05T10:07:50.150Z,97.10
2019-05-05T10:10:20.331Z,97.20
2019-05-05T10:12:52.268Z,96.60
2019-05-05T10:15:20.943Z,97.40
2019-05-05T10:17:50.259Z,95.70
2019-05-05T10:20:20.489Z,96.30
2019-05-05T10:22:49.927Z,96.10
2019-05-05T10:25:50.463Z,96.90
2019-05-05T10:28:19.766Z,96.80
2019-05-05T10:30:49.202Z,96.70
2019-05-05T10:33:18.610Z,97.70
2019-05-05T10:35:48.008Z,98.00
2019-05-05T10:38:17.322Z,98.10
2019-05-05T10:40:48.322Z,98.80
2019-05-05T10:43:17.825Z,96.80
2019-05-05T10:45:49.030Z,97.10
2019-05-05T10:48:18.290Z,97.40
2019-05-05T10:50:47.660Z,98.40
2019-05-05T10:53:16.940Z,97.90
2019-05-05T10:55:46.479Z,97.60
2019-05-05T10:58:15.983Z,96.30
2019-05-05T11:00:48.721Z,97.10
2019-05-05T11:03:18.166Z,96.70
2019-05-05T11:05:47.557Z,96.60
2019-05-05T11:08:17.548Z,97.60
2019-05-05T11:10:47.228Z,97.40
2019-05-05T11:13:17.679Z,97.40
2019-05-05T11:15:49.118Z,97.60
2019-05-05T11:18:19.766Z,97.20
2019-05-05T11:20:49.203Z,98.00
2019-05-05T11:23:18.635Z,98.00
2019-05-05T11:25:48.106Z,98.00
2019-05-05T11:28:17.522Z,97.70
2019-05-05T11:30:47.140Z,97.40
2019-05-05T11:33:50.665Z,98.60
2019-05-05T11:36:44.852Z,99.60
2019-05-05T11:39:14.915Z,99.90
2019-05-05T11:41:44.375Z,99.90
2019-05-05T11:44:15.189Z,99.40
2019-05-05T11:46:44.963Z,99.30
2019-05-05T11:49:14.625Z,99.40
2019-05-05T11:51:44.535Z,98.40
2019-05-05T11:54:17.110Z,98.20
2019-05-05T11:56:47.098Z,99.40
2019-05-05T11:59:16.442Z,99.90
2019-05-05T12:01:48.795Z,99.90
2019-05-05T12:04:18.248Z,99.40
2019-05-05T12:06:49.206Z,99.40
2019-05-05T12:09:27.569Z,99.60
2019-05-05T12:11:57.655Z,99.90
2019-05-05T12:14:28.742Z,99.90
2019-05-05T12:16:58.183Z,99.90
2019-05-05T12:19:27.656Z,99.90
2019-05-05T12:21:56.975Z,98.80
2019-05-05T12:24:30.662Z,99.90
2019-05-05T12:27:14.092Z,99.90
2019-05-05T12:29:56.959Z,99.90
2019-05-05T12:32:26.958Z,99.90
2019-05-05T12:34:57.026Z,99.90
2019-05-05T12:37:26.346Z,99.90
2019-05-05T12:39:56.414Z,99.80
2019-05-05T12:42:25.805Z,99.90
2019-05-05T12:45:00.423Z,99.90
2019-05-05T12:47:49.035Z,99.90
2019-05-05T12:50:19.873Z,99.90
2019-05-05T12:52:49.259Z,99.90
2019-05-05T12:55:19.694Z,99.90
2019-05-05T12:57:50.448Z,99.90
2019-05-05T13:00:43.493Z,99.90
2019-05-05T13:03:25.292Z,99.90
2019-05-05T13:06:04.067Z,99.90
2019-05-05T13:08:36.828Z,99.90
2019-05-05T13:11:06.436Z,99.90
2019-05-05T13:13:38.270Z,99.90
2019-05-05T13:16:13.642Z,99.90
2019-05-05T13:18:42.885Z,99.90
2019-05-05T13:21:23.940Z,99.90
2019-05-05T13:24:17.763Z,99.90
2019-05-05T13:26:54.077Z,99.90
2019-05-05T13:29:27.693Z,99.90
2019-05-05T13:32:00.134Z,99.90
2019-05-05T13:34:29.671Z,99.90
2019-05-05T13:37:04.235Z,99.90
2019-05-05T13:39:37.923Z,99.90
2019-05-05T13:42:07.300Z,99.90
2019-05-05T13:44:57.285Z,99.90
2019-05-05T13:47:29.386Z,99.90
2019-05-05T13:50:07.946Z,99.90
2019-05-05T13:52:44.254Z,99.90
2019-05-05T13:55:17.121Z,99.90
2019-05-05T13:57:47.279Z,99.90
2019-05-05T14:00:18.473Z,99.90
2019-05-05T14:02:58.838Z,99.90
2019-05-05T14:05:48.265Z,99.90
2019-05-05T14:08:18.401Z,99.90
2019-05-05T14:10:47.837Z,99.90
2019-05-05T14:13:17.137Z,99.90
2019-05-05T14:15:46.545Z,99.90
2019-05-05T14:18:15.984Z,99.90
2019-05-05T14:20:45.642Z,99.90
2019-05-05T14:23:15.178Z,99.90
2019-05-05T14:25:44.546Z,99.90
2019-05-05T14:28:14.374Z,99.90
2019-05-05T14:31:02.690Z,99.90
2019-05-05T14:33:48.673Z,99.90
2019-05-05T14:36:28.961Z,99.90
2019-05-05T14:38:58.916Z,99.90
2019-05-05T14:41:28.405Z,99.90
2019-05-05T14:43:58.187Z,99.90
2019-05-05T14:46:28.549Z,99.90
2019-05-05T14:48:59.423Z,99.90
2019-05-05T14:51:28.715Z,99.90
2019-05-05T14:53:58.041Z,99.90
2019-05-05T14:56:36.248Z,99.90
2019-05-05T14:59:01.092Z,99.90
2019-05-05T15:01:30.485Z,99.90
2019-05-05T15:03:59.786Z,99.90
2019-05-05T15:06:48.198Z,99.90
2019-05-05T15:09:24.653Z,99.90
2019-05-05T15:12:03.923Z,99.90
2019-05-05T15:14:34.703Z,99.90
2019-05-05T15:17:04.672Z,99.90
2019-05-05T15:19:34.228Z,99.90
2019-05-05T15:22:04.964Z,99.90
2019-05-05T15:24:34.292Z,99.90
2019-05-05T15:27:03.553Z,99.90
2019-05-05T15:29:34.452Z,99.90
2019-05-05T15:32:04.368Z,99.90
2019-05-05T15:34:34.355Z,99.90
2019-05-05T15:37:04.040Z,99.90
2019-05-05T15:39:33.695Z,99.90
2019-05-05T15:42:04.662Z,99.90
2019-05-05T15:44:34.603Z,99.90
2019-05-05T15:47:04.148Z,99.90
2019-05-05T15:49:33.551Z,99.90
2019-05-05T15:52:05.044Z,99.90
2019-05-05T15:54:35.624Z,99.90
2019-05-05T15:57:08.538Z,99.90
2019-05-05T15:59:35.930Z,99.90
2019-05-05T16:02:05.209Z,99.90
2019-05-05T16:04:35.692Z,99.90
2019-05-05T16:07:05.080Z,99.90
2019-05-05T16:09:34.495Z,99.90
2019-05-05T16:12:03.875Z,99.90
2019-05-05T16:14:37.507Z,99.90
2019-05-05T16:17:19.450Z,99.90
2019-05-05T16:19:57.870Z,99.90
2019-05-05T16:22:48.642Z,99.90
2019-05-05T16:25:20.544Z,99.90
2019-05-05T16:27:49.885Z,99.90
2019-05-05T16:30:19.960Z,99.90
2019-05-05T16:32:49.335Z,99.90
2019-05-05T16:35:20.138Z,99.90
2019-05-05T16:37:49.545Z,99.90
2019-05-05T16:40:23.238Z,99.90
2019-05-05T16:42:54.340Z,99.90
2019-05-05T16:45:24.704Z,99.90
2019-05-05T16:47:54.600Z,99.90
2019-05-05T16:50:25.096Z,99.90
2019-05-05T16:53:06.786Z,99.90
2019-05-05T16:55:40.913Z,99.90
2019-05-05T16:58:13.938Z,99.90
2019-05-05T17:00:49.686Z,99.90
2019-05-05T17:03:25.089Z,99.90
2019-05-05T17:05:58.253Z,99.90
2019-05-05T17:08:30.018Z,99.90
2019-05-05T17:11:02.039Z,99.90
2019-05-05T17:13:41.610Z,99.90
2019-05-05T17:16:35.046Z,99.90
2019-05-05T17:19:14.013Z,99.90
2019-05-05T17:22:03.923Z,99.90
2019-05-05T17:24:34.508Z,99.90
2019-05-05T17:27:06.027Z,99.90
2019-05-05T17:29:40.034Z,99.90
2019-05-05T17:32:13.926Z,99.90
2019-05-05T17:34:48.259Z,99.90
2019-05-05T17:37:18.854Z,99.90
2019-05-05T17:40:06.567Z,99.90
2019-05-05T17:43:24.306Z,99.90
2019-05-05T17:45:59.476Z,99.90
2019-05-05T17:48:44.185Z,99.90
2019-05-05T17:51:31.219Z,99.90
2019-05-05T17:54:18.590Z,99.90
2019-05-05T17:56:52.379Z,99.90
2019-05-05T17:59:33.767Z,99.90
2019-05-05T18:05:46.266Z,99.90
2019-05-05T18:08:33.784Z,99.90
2019-05-05T18:11:10.176Z,99.90
2019-05-05T18:14:01.346Z,99.90
2019-05-05T18:16:44.643Z,99.90
2019-05-05T18:19:19.809Z,99.90
2019-05-05T18:21:54.729Z,99.90
2019-05-05T18:24:33.691Z,99.90
2019-05-05T18:27:09.549Z,99.90
2019-05-05T18:29:39.301Z,99.90
2019-05-05T18:32:13.845Z,99.90
2019-05-05T18:34:45.229Z,99.90
2019-05-05T18:37:17.926Z,99.90
2019-05-05T18:40:04.119Z,99.90
2019-05-05T18:42:36.921Z,99.90
2019-05-05T18:45:11.430Z,99.90
2019-05-05T18:47:43.382Z,99.90
2019-05-05T18:50:31.266Z,99.90
2019-05-05T18:53:01.906Z,99.90
2019-05-05T18:55:33.927Z,99.90
2019-05-05T18:58:10.841Z,99.90
2019-05-05T19:01:13.608Z,99.90
2019-05-05T19:04:35.918Z,99.90
2019-05-05T19:07:16.014Z,99.90
2019-05-05T19:09:53.860Z,99.90
2019-05-05T19:12:19.593Z,99.90
2019-05-05T19:14:55.049Z,99.90
2019-05-05T19:17:28.847Z,99.90
2019-05-05T19:20:04.246Z,99.90
2019-05-05T19:22:36.135Z,99.90
2019-05-05T19:25:17.739Z,99.90
2019-05-05T19:27:48.458Z,99.90
2019-05-05T19:30:25.541Z,99.90
2019-05-05T19:32:56.930Z,99.90
2019-05-05T19:35:43.572Z,99.90
2019-05-05T19:38:08.065Z,99.90
2019-05-05T19:40:39.607Z,99.90
2019-05-05T19:43:10.071Z,99.90
2019-05-05T19:45:41.355Z,99.90
2019-05-05T19:48:11.075Z,99.90
2019-05-05T19:50:54.199Z,99.90
2019-05-05T19:53:26.146Z,99.90
2019-05-05T19:56:01.205Z,99.90
2019-05-05T19:58:34.062Z,99.90
2019-05-05T20:01:08.382Z,99.90
2019-05-05T20:03:40.842Z,99.90
2019-05-05T20:06:14.193Z,99.90
2019-05-05T20:08:45.030Z,99.90
2019-05-05T20:11:15.887Z,99.90
2019-05-05T20:13:46.307Z,99.90
2019-05-05T20:16:54.691Z,99.90
2019-05-05T20:19:25.169Z,99.90
2019-05-05T20:21:59.686Z,99.90
2019-05-05T20:24:33.728Z,99.90
2019-05-05T20:27:06.884Z,99.90
2019-05-05T20:29:40.492Z,99.90
2019-05-05T20:32:13.875Z,99.90
2019-05-05T20:35:17.485Z,99.90
2019-05-05T20:37:54.234Z,99.90
2019-05-05T20:40:27.234Z,99.90
2019-05-05T20:42:58.350Z,99.90
2019-05-05T20:45:34.668Z,99.90
2019-05-05T20:48:05.484Z,99.90
2019-05-05T20:50:38.300Z,99.90
2019-05-05T20:53:30.591Z,99.90
2019-05-05T20:56:04.305Z,99.90
2019-05-05T20:58:35.265Z,99.90
2019-05-05T21:01:06.332Z,99.90
2019-05-05T21:03:37.177Z,99.90
2019-05-05T21:06:09.176Z,99.90
2019-05-05T21:08:48.153Z,99.90
2019-05-05T21:11:19.497Z,99.90
2019-05-05T21:13:54.343Z,99.90
2019-05-05T21:16:27.611Z,99.90
2019-05-05T21:19:04.456Z,99.90
2019-05-05T21:21:37.295Z,99.90
2019-05-05T21:24:10.000Z,99.90
2019-05-05T21:26:58.643Z,99.90
2019-05-05T21:29:39.678Z,99.90
2019-05-05T21:32:04.650Z,99.90
2019-05-05T21:34:36.855Z,99.90
2019-05-05T21:37:06.886Z,99.90
2019-05-05T21:39:37.117Z,99.90
2019-05-05T21:42:08.843Z,99.90
2019-05-05T21:44:39.818Z,99.90
2019-05-05T21:47:11.322Z,99.90
2019-05-05T21:49:42.649Z,99.90
2019-05-05T21:52:36.674Z,99.90
2019-05-05T21:55:17.942Z,99.90
2019-05-05T21:58:23.301Z,99.90
2019-05-05T22:01:04.460Z,99.90
2019-05-05T22:03:40.567Z,99.90
2019-05-05T22:06:14.417Z,99.90
2019-05-05T22:08:45.144Z,99.90
2019-05-05T22:11:15.659Z,99.90
2019-05-05T22:13:46.436Z,99.90
2019-05-05T22:16:17.400Z,99.90
2019-05-05T22:18:48.910Z,99.90
2019-05-05T22:21:44.192Z,99.90
2019-05-05T22:24:22.798Z,99.90
2019-05-05T22:26:54.373Z,99.90
2019-05-05T22:29:25.646Z,99.90
2019-05-05T22:31:57.164Z,99.90
2019-05-05T22:34:29.229Z,99.90
2019-05-05T22:37:07.618Z,99.90
2019-05-05T22:39:38.159Z,99.90
2019-05-05T22:42:09.066Z,99.90
2019-05-05T22:44:40.082Z,99.90
2019-05-05T22:47:11.503Z,99.90
2019-05-05T22:49:44.194Z,99.90
2019-05-05T22:52:15.263Z,99.90
2019-05-05T22:54:47.076Z,99.90
2019-05-05T22:57:21.336Z,99.90
2019-05-05T22:59:54.084Z,99.90
2019-05-05T23:02:27.654Z,99.90
2019-05-05T23:05:14.712Z,99.90
2019-05-05T23:07:47.133Z,99.90
2019-05-05T23:10:19.883Z,99.90
2019-05-05T23:12:54.329Z,99.90
2019-05-05T23:15:25.562Z,99.90
2019-05-05T23:18:10.827Z,99.90
2019-05-05T23:21:15.637Z,99.90
2019-05-05T23:24:03.695Z,99.90
2019-05-05T23:26:38.461Z,99.90
2019-05-05T23:29:14.680Z,99.90
2019-05-05T23:31:48.399Z,99.90
2019-05-05T23:34:20.639Z,99.90
2019-05-05T23:36:53.452Z,99.90
2019-05-05T23:39:27.743Z,99.90
2019-05-05T23:41:57.603Z,99.90
2019-05-05T23:44:31.421Z,99.90
2019-05-05T23:49:56.203Z,99.90
2019-05-05T23:52:27.242Z,99.90
2019-05-05T23:54:57.298Z,99.90
2019-05-05T23:57:29.088Z,99.90
2019-05-05T23:59:58.686Z,99.90
